Cash's Hourly Summary for Sunday, March 19, 2017
Hour Temp
(f)
RH
(%)
Solar Rad.
(MJ/m2)
Rainfall
(in)
Wind
(mph)
3/19/2017 12:00 AM 64 88 0 0 2.15
3/19/2017 1:00 AM 63 91 0 0 0.52
3/19/2017 2:00 AM 62 94 0 0 0.12
3/19/2017 3:00 AM 62 95 0 0 0.18
3/19/2017 4:00 AM 61 96 0 0 0.2
3/19/2017 5:00 AM 60 97 0 0 0.13
3/19/2017 6:00 AM 60 97 0 0 0
3/19/2017 7:00 AM 61 97 0 0 0.59
3/19/2017 8:00 AM 62 96 0.03 0 1.75
3/19/2017 9:00 AM 64 87 0.43 0 2.9
3/19/2017 10:00 AM 68 78 1.08 0 5.1
3/19/2017 11:00 AM 71 70 1.84 0 6.35
3/19/2017 12:00 PM 72 68 2.2 0 7.39
3/19/2017 1:00 PM 73 64 2.56 0 8.11
3/19/2017 2:00 PM 76 56 3.03 0 7.31
3/19/2017 3:00 PM 78 52 2.94 0 7.49
3/19/2017 4:00 PM 80 48 2.64 0 7.74
3/19/2017 5:00 PM 81 46 2.11 0 8.04
3/19/2017 6:00 PM 80 46 1.41 0 8.19
3/19/2017 7:00 PM 79 47 0.66 0 7.63
3/19/2017 8:00 PM 75 52 0.07 0 4.55
3/19/2017 9:00 PM 71 60 0 0 4.25
3/19/2017 10:00 PM 70 68 0 0 3.98
3/19/2017 11:00 PM 69 68 0 0 3.69
Data Summary 69 73 21.00 0.00 4.10